sensor_id;sensor_type;location;lat;lon;timestamp;pressure;altitude;pressure_sealevel;temperature;humidity
56831;BME280;42713;42.676;23.352;2022-08-07T00:00:04;94521.34;;;26.04;43.42
56831;BME280;42713;42.676;23.352;2022-08-07T00:02:30;94520.31;;;26.08;43.78
56831;BME280;42713;42.676;23.352;2022-08-07T00:04:55;94520.13;;;26.01;44.58
56831;BME280;42713;42.676;23.352;2022-08-07T00:07:21;94535.59;;;25.92;44.88
56831;BME280;42713;42.676;23.352;2022-08-07T00:09:46;94526.25;;;25.86;44.83
56831;BME280;42713;42.676;23.352;2022-08-07T00:12:11;94526.84;;;25.79;45.22
56831;BME280;42713;42.676;23.352;2022-08-07T00:14:37;94524.78;;;25.72;45.40
56831;BME280;42713;42.676;23.352;2022-08-07T00:17:02;94522.34;;;25.67;45.64
56831;BME280;42713;42.676;23.352;2022-08-07T00:19:29;94519.50;;;25.60;45.93
56831;BME280;42713;42.676;23.352;2022-08-07T00:21:55;94522.09;;;25.56;45.95
56831;BME280;42713;42.676;23.352;2022-08-07T00:24:21;94525.00;;;25.51;46.29
56831;BME280;42713;42.676;23.352;2022-08-07T00:26:46;94529.91;;;25.49;46.27
56831;BME280;42713;42.676;23.352;2022-08-07T00:29:12;94523.94;;;25.40;46.57
56831;BME280;42713;42.676;23.352;2022-08-07T00:31:37;94532.66;;;25.37;46.53
56831;BME280;42713;42.676;23.352;2022-08-07T00:34:03;94529.63;;;25.38;46.63
56831;BME280;42713;42.676;23.352;2022-08-07T00:36:28;94527.50;;;25.44;46.34
56831;BME280;42713;42.676;23.352;2022-08-07T00:38:54;94524.47;;;25.45;46.10
56831;BME280;42713;42.676;23.352;2022-08-07T00:41:30;94531.19;;;25.39;45.93
56831;BME280;42713;42.676;23.352;2022-08-07T00:43:56;94531.41;;;25.34;45.77
56831;BME280;42713;42.676;23.352;2022-08-07T00:46:22;94529.84;;;25.33;45.88
56831;BME280;42713;42.676;23.352;2022-08-07T00:48:47;94526.03;;;25.34;46.19
56831;BME280;42713;42.676;23.352;2022-08-07T00:51:13;94526.97;;;25.26;46.76
56831;BME280;42713;42.676;23.352;2022-08-07T00:53:39;94527.78;;;25.26;46.63
56831;BME280;42713;42.676;23.352;2022-08-07T00:56:04;94524.38;;;25.29;46.66
56831;BME280;42713;42.676;23.352;2022-08-07T00:58:30;94528.00;;;25.21;46.77
56831;BME280;42713;42.676;23.352;2022-08-07T01:00:56;94528.56;;;25.14;46.78
56831;BME280;42713;42.676;23.352;2022-08-07T01:03:22;94534.81;;;25.18;46.47
56831;BME280;42713;42.676;23.352;2022-08-07T01:05:48;94536.41;;;25.07;46.65
56831;BME280;42713;42.676;23.352;2022-08-07T01:08:14;94528.63;;;25.02;46.38
56831;BME280;42713;42.676;23.352;2022-08-07T01:10:40;94529.03;;;25.04;46.74
56831;BME280;42713;42.676;23.352;2022-08-07T01:13:07;94529.75;;;25.01;46.56
56831;BME280;42713;42.676;23.352;2022-08-07T01:15:33;94533.53;;;25.00;46.66
56831;BME280;42713;42.676;23.352;2022-08-07T01:17:59;94536.88;;;24.97;46.49
56831;BME280;42713;42.676;23.352;2022-08-07T01:20:31;94544.16;;;24.96;46.85
56831;BME280;42713;42.676;23.352;2022-08-07T01:22:58;94550.09;;;24.90;47.30
56831;BME280;42713;42.676;23.352;2022-08-07T01:25:25;94551.53;;;24.87;47.35
56831;BME280;42713;42.676;23.352;2022-08-07T01:27:50;94545.97;;;24.80;47.73
56831;BME280;42713;42.676;23.352;2022-08-07T01:30:16;94547.66;;;24.72;47.85
56831;BME280;42713;42.676;23.352;2022-08-07T01:32:42;94551.31;;;24.67;48.03
56831;BME280;42713;42.676;23.352;2022-08-07T01:35:08;94549.44;;;24.68;48.44
56831;BME280;42713;42.676;23.352;2022-08-07T01:37:34;94544.63;;;24.61;48.84
56831;BME280;42713;42.676;23.352;2022-08-07T01:39:59;94550.22;;;24.56;49.21
56831;BME280;42713;42.676;23.352;2022-08-07T01:42:26;94547.84;;;24.54;49.23
56831;BME280;42713;42.676;23.352;2022-08-07T01:44:52;94556.44;;;24.60;49.07
56831;BME280;42713;42.676;23.352;2022-08-07T01:47:18;94565.59;;;24.59;49.09
56831;BME280;42713;42.676;23.352;2022-08-07T01:49:44;94571.94;;;24.54;48.94
56831;BME280;42713;42.676;23.352;2022-08-07T01:52:11;94579.22;;;24.54;48.82
56831;BME280;42713;42.676;23.352;2022-08-07T01:54:39;94605.06;;;24.50;49.13
56831;BME280;42713;42.676;23.352;2022-08-07T01:57:12;94621.38;;;24.45;49.55
56831;BME280;42713;42.676;23.352;2022-08-07T01:59:48;94632.50;;;24.34;50.01
56831;BME280;42713;42.676;23.352;2022-08-07T02:02:20;94644.13;;;24.38;49.59
56831;BME280;42713;42.676;23.352;2022-08-07T02:04:50;94635.97;;;24.35;49.91
56831;BME280;42713;42.676;23.352;2022-08-07T02:07:19;94635.41;;;24.29;49.59
56831;BME280;42713;42.676;23.352;2022-08-07T02:09:48;94646.13;;;24.29;49.07
56831;BME280;42713;42.676;23.352;2022-08-07T02:12:17;94650.56;;;24.25;49.53
56831;BME280;42713;42.676;23.352;2022-08-07T02:14:46;94638.63;;;24.22;49.69
56831;BME280;42713;42.676;23.352;2022-08-07T02:17:14;94652.78;;;24.23;49.85
56831;BME280;42713;42.676;23.352;2022-08-07T02:19:41;94652.31;;;24.21;50.80
56831;BME280;42713;42.676;23.352;2022-08-07T02:22:10;94656.44;;;24.18;51.98
56831;BME280;42713;42.676;23.352;2022-08-07T02:24:40;94656.44;;;24.18;52.75
56831;BME280;42713;42.676;23.352;2022-08-07T02:27:07;94645.97;;;24.13;53.84
56831;BME280;42713;42.676;23.352;2022-08-07T02:29:34;94630.22;;;24.12;54.60
56831;BME280;42713;42.676;23.352;2022-08-07T02:32:01;94609.63;;;24.12;54.82
56831;BME280;42713;42.676;23.352;2022-08-07T02:34:29;94607.25;;;24.11;55.28
56831;BME280;42713;42.676;23.352;2022-08-07T02:36:56;94615.78;;;23.91;55.22
56831;BME280;42713;42.676;23.352;2022-08-07T02:39:23;94605.16;;;23.83;56.84
56831;BME280;42713;42.676;23.352;2022-08-07T02:41:51;94599.50;;;23.84;55.87
56831;BME280;42713;42.676;23.352;2022-08-07T02:44:17;94574.72;;;23.75;55.45
56831;BME280;42713;42.676;23.352;2022-08-07T02:46:44;94574.03;;;23.66;55.40
56831;BME280;42713;42.676;23.352;2022-08-07T02:49:12;94579.78;;;23.55;56.28
56831;BME280;42713;42.676;23.352;2022-08-07T02:51:39;94570.19;;;23.54;56.42
56831;BME280;42713;42.676;23.352;2022-08-07T02:54:08;94563.47;;;23.48;56.62
56831;BME280;42713;42.676;23.352;2022-08-07T02:56:37;94570.16;;;23.42;56.41
56831;BME280;42713;42.676;23.352;2022-08-07T02:59:08;94579.91;;;23.38;56.12
56831;BME280;42713;42.676;23.352;2022-08-07T03:01:38;94570.78;;;23.39;56.41
56831;BME280;42713;42.676;23.352;2022-08-07T03:04:06;94573.41;;;23.47;56.20
56831;BME280;42713;42.676;23.352;2022-08-07T03:06:34;94558.25;;;23.52;56.29
56831;BME280;42713;42.676;23.352;2022-08-07T03:09:04;94557.47;;;23.51;56.29
56831;BME280;42713;42.676;23.352;2022-08-07T03:11:32;94548.94;;;23.58;56.49
56831;BME280;42713;42.676;23.352;2022-08-07T03:14:00;94557.06;;;23.61;56.58
56831;BME280;42713;42.676;23.352;2022-08-07T03:16:26;94555.50;;;23.60;57.35
56831;BME280;42713;42.676;23.352;2022-08-07T03:18:52;94562.19;;;23.67;57.70
56831;BME280;42713;42.676;23.352;2022-08-07T03:21:18;94565.34;;;23.69;58.17
56831;BME280;42713;42.676;23.352;2022-08-07T03:23:45;94571.13;;;23.71;59.08
56831;BME280;42713;42.676;23.352;2022-08-07T03:26:17;94574.56;;;23.59;60.07
56831;BME280;42713;42.676;23.352;2022-08-07T03:28:45;94574.88;;;23.57;60.82
56831;BME280;42713;42.676;23.352;2022-08-07T03:31:11;94574.97;;;23.49;61.22
56831;BME280;42713;42.676;23.352;2022-08-07T03:33:45;94571.72;;;23.43;61.97
56831;BME280;42713;42.676;23.352;2022-08-07T03:36:12;94574.25;;;23.39;62.05
56831;BME280;42713;42.676;23.352;2022-08-07T03:38:42;94568.91;;;23.39;62.58
56831;BME280;42713;42.676;23.352;2022-08-07T03:41:09;94562.78;;;23.39;62.50
56831;BME280;42713;42.676;23.352;2022-08-07T03:43:36;94566.25;;;23.39;62.70
56831;BME280;42713;42.676;23.352;2022-08-07T03:46:04;94563.97;;;23.29;63.31
56831;BME280;42713;42.676;23.352;2022-08-07T03:48:34;94573.56;;;23.30;64.15
56831;BME280;42713;42.676;23.352;2022-08-07T03:51:01;94592.69;;;23.32;63.94
56831;BME280;42713;42.676;23.352;2022-08-07T03:53:27;94588.91;;;23.33;63.81
56831;BME280;42713;42.676;23.352;2022-08-07T03:55:54;94590.34;;;23.30;64.56
56831;BME280;42713;42.676;23.352;2022-08-07T03:58:22;94601.03;;;23.30;64.29
56831;BME280;42713;42.676;23.352;2022-08-07T04:00:48;94589.72;;;23.34;64.29
56831;BME280;42713;42.676;23.352;2022-08-07T04:03:16;94592.38;;;23.34;63.43
56831;BME280;42713;42.676;23.352;2022-08-07T04:05:42;94589.91;;;23.28;63.58
56831;BME280;42713;42.676;23.352;2022-08-07T04:08:13;94588.03;;;23.29;63.17
56831;BME280;42713;42.676;23.352;2022-08-07T04:10:40;94599.28;;;23.35;63.24
56831;BME280;42713;42.676;23.352;2022-08-07T04:13:06;94585.25;;;23.38;63.28
56831;BME280;42713;42.676;23.352;2022-08-07T04:15:32;94595.44;;;23.44;62.57
56831;BME280;42713;42.676;23.352;2022-08-07T04:18:00;94596.47;;;23.52;62.46
56831;BME280;42713;42.676;23.352;2022-08-07T04:20:25;94600.38;;;23.55;62.70
56831;BME280;42713;42.676;23.352;2022-08-07T04:22:51;94607.22;;;23.65;62.66
56831;BME280;42713;42.676;23.352;2022-08-07T04:25:17;94605.78;;;23.67;61.81
56831;BME280;42713;42.676;23.352;2022-08-07T04:27:44;94610.38;;;23.79;61.07
56831;BME280;42713;42.676;23.352;2022-08-07T04:30:10;94602.94;;;23.85;61.78
56831;BME280;42713;42.676;23.352;2022-08-07T04:32:36;94614.97;;;23.91;61.96
56831;BME280;42713;42.676;23.352;2022-08-07T04:35:04;94618.66;;;23.86;60.97
56831;BME280;42713;42.676;23.352;2022-08-07T04:37:32;94618.41;;;23.79;60.98
56831;BME280;42713;42.676;23.352;2022-08-07T04:39:58;94618.41;;;23.79;61.37
56831;BME280;42713;42.676;23.352;2022-08-07T04:42:23;94623.28;;;23.77;61.59
56831;BME280;42713;42.676;23.352;2022-08-07T04:45:00;94620.97;;;23.75;61.67
56831;BME280;42713;42.676;23.352;2022-08-07T04:47:49;94625.84;;;23.73;61.83
56831;BME280;42713;42.676;23.352;2022-08-07T04:50:44;94618.63;;;23.74;62.42
56831;BME280;42713;42.676;23.352;2022-08-07T04:53:20;94619.03;;;23.63;62.21
56831;BME280;42713;42.676;23.352;2022-08-07T04:55:52;94624.38;;;23.63;62.81
56831;BME280;42713;42.676;23.352;2022-08-07T04:58:32;94629.84;;;23.67;63.17
56831;BME280;42713;42.676;23.352;2022-08-07T05:01:20;94629.03;;;23.67;63.32
56831;BME280;42713;42.676;23.352;2022-08-07T05:04:00;94628.28;;;23.66;64.09
56831;BME280;42713;42.676;23.352;2022-08-07T05:06:52;94635.78;;;23.73;64.33
56831;BME280;42713;42.676;23.352;2022-08-07T05:09:28;94640.25;;;23.81;63.56
56831;BME280;42713;42.676;23.352;2022-08-07T05:11:54;94642.19;;;23.93;63.07
56831;BME280;42713;42.676;23.352;2022-08-07T05:14:43;94650.06;;;23.98;63.71
56831;BME280;42713;42.676;23.352;2022-08-07T05:17:13;94645.59;;;24.02;63.47
56831;BME280;42713;42.676;23.352;2022-08-07T05:19:43;94649.75;;;24.12;61.76
56831;BME280;42713;42.676;23.352;2022-08-07T05:22:10;94643.41;;;24.17;61.71
56831;BME280;42713;42.676;23.352;2022-08-07T05:24:38;94648.22;;;24.23;61.75
56831;BME280;42713;42.676;23.352;2022-08-07T05:27:04;94647.44;;;24.23;61.65
56831;BME280;42713;42.676;23.352;2022-08-07T05:29:35;94652.47;;;24.24;62.41
56831;BME280;42713;42.676;23.352;2022-08-07T05:32:06;94653.81;;;24.31;60.51
56831;BME280;42713;42.676;23.352;2022-08-07T05:34:32;94650.03;;;24.32;60.13
56831;BME280;42713;42.676;23.352;2022-08-07T05:37:00;94656.38;;;24.39;60.76
56831;BME280;42713;42.676;23.352;2022-08-07T05:39:26;94651.16;;;24.43;60.36
56831;BME280;42713;42.676;23.352;2022-08-07T05:41:52;94660.97;;;24.51;60.44
56831;BME280;42713;42.676;23.352;2022-08-07T05:44:21;94661.88;;;24.55;60.32
56831;BME280;42713;42.676;23.352;2022-08-07T05:47:09;94677.50;;;24.66;60.41
56831;BME280;42713;42.676;23.352;2022-08-07T05:49:35;94679.66;;;24.73;58.73
56831;BME280;42713;42.676;23.352;2022-08-07T05:52:01;94679.44;;;24.78;59.01
56831;BME280;42713;42.676;23.352;2022-08-07T05:54:27;94683.66;;;24.79;58.94
56831;BME280;42713;42.676;23.352;2022-08-07T05:56:53;94685.69;;;24.82;57.41
56831;BME280;42713;42.676;23.352;2022-08-07T05:59:20;94689.81;;;24.79;57.76
56831;BME280;42713;42.676;23.352;2022-08-07T06:01:48;94691.28;;;24.77;58.01
56831;BME280;42713;42.676;23.352;2022-08-07T06:04:15;94690.81;;;24.75;58.44
56831;BME280;42713;42.676;23.352;2022-08-07T06:06:42;94697.19;;;24.70;57.51
56831;BME280;42713;42.676;23.352;2022-08-07T06:09:09;94693.00;;;24.60;57.08
56831;BME280;42713;42.676;23.352;2022-08-07T06:11:35;94698.50;;;24.64;58.36
56831;BME280;42713;42.676;23.352;2022-08-07T06:14:03;94696.84;;;24.71;58.00
56831;BME280;42713;42.676;23.352;2022-08-07T06:16:31;94694.69;;;24.65;57.41
56831;BME280;42713;42.676;23.352;2022-08-07T06:19:00;94695.38;;;24.62;57.37
56831;BME280;42713;42.676;23.352;2022-08-07T06:21:28;94696.84;;;24.71;58.65
56831;BME280;42713;42.676;23.352;2022-08-07T06:23:53;94701.09;;;24.73;57.32
56831;BME280;42713;42.676;23.352;2022-08-07T06:26:19;94698.22;;;24.78;57.70
56831;BME280;42713;42.676;23.352;2022-08-07T06:28:49;94702.66;;;24.86;56.47
56831;BME280;42713;42.676;23.352;2022-08-07T06:31:15;94708.47;;;24.88;56.51
56831;BME280;42713;42.676;23.352;2022-08-07T06:33:40;94694.75;;;24.90;56.09
56831;BME280;42713;42.676;23.352;2022-08-07T06:36:06;94695.63;;;24.94;55.62
56831;BME280;42713;42.676;23.352;2022-08-07T06:38:32;94695.75;;;24.85;55.79
56831;BME280;42713;42.676;23.352;2022-08-07T06:40:58;94695.19;;;24.92;54.71
56831;BME280;42713;42.676;23.352;2022-08-07T06:43:27;94695.53;;;25.02;54.62
56831;BME280;42713;42.676;23.352;2022-08-07T06:46:00;94705.22;;;25.07;54.96
56831;BME280;42713;42.676;23.352;2022-08-07T06:48:26;94696.53;;;25.10;55.38
56831;BME280;42713;42.676;23.352;2022-08-07T06:50:54;94698.09;;;24.99;55.57
56831;BME280;42713;42.676;23.352;2022-08-07T06:53:23;94686.13;;;25.09;56.69
56831;BME280;42713;42.676;23.352;2022-08-07T06:55:51;94703.31;;;25.20;55.86
56831;BME280;42713;42.676;23.352;2022-08-07T06:58:19;94696.94;;;25.25;55.53
56831;BME280;42713;42.676;23.352;2022-08-07T07:00:45;94694.50;;;25.32;54.54
56831;BME280;42713;42.676;23.352;2022-08-07T07:03:12;94692.03;;;25.39;54.94
56831;BME280;42713;42.676;23.352;2022-08-07T07:05:38;94709.47;;;25.45;54.63
56831;BME280;42713;42.676;23.352;2022-08-07T07:08:04;94693.47;;;25.49;53.90
56831;BME280;42713;42.676;23.352;2022-08-07T07:10:32;94700.63;;;25.57;53.48
56831;BME280;42713;42.676;23.352;2022-08-07T07:13:24;94696.03;;;25.58;54.17
56831;BME280;42713;42.676;23.352;2022-08-07T07:15:49;94688.53;;;25.63;55.27
56831;BME280;42713;42.676;23.352;2022-08-07T07:18:21;94695.13;;;25.66;53.76
56831;BME280;42713;42.676;23.352;2022-08-07T07:20:54;94702.94;;;25.71;54.22
56831;BME280;42713;42.676;23.352;2022-08-07T07:23:21;94698.91;;;25.77;53.27
56831;BME280;42713;42.676;23.352;2022-08-07T07:25:50;94697.09;;;25.82;53.20
56831;BME280;42713;42.676;23.352;2022-08-07T07:28:35;94693.06;;;25.88;52.97
56831;BME280;42713;42.676;23.352;2022-08-07T07:31:05;94697.75;;;25.91;51.48
56831;BME280;42713;42.676;23.352;2022-08-07T07:33:34;94692.47;;;25.94;50.66
56831;BME280;42713;42.676;23.352;2022-08-07T07:36:00;94693.25;;;25.95;50.22
56831;BME280;42713;42.676;23.352;2022-08-07T07:38:27;94692.91;;;25.97;50.44
56831;BME280;42713;42.676;23.352;2022-08-07T07:41:02;94687.53;;;25.97;50.42
56831;BME280;42713;42.676;23.352;2022-08-07T07:43:51;94692.56;;;25.98;49.56
56831;BME280;42713;42.676;23.352;2022-08-07T07:46:18;94693.88;;;26.04;48.92
56831;BME280;42713;42.676;23.352;2022-08-07T07:48:47;94701.47;;;26.02;48.84
56831;BME280;42713;42.676;23.352;2022-08-07T07:51:16;94707.66;;;26.03;48.74
56831;BME280;42713;42.676;23.352;2022-08-07T07:53:45;94700.81;;;26.05;47.81
56831;BME280;42713;42.676;23.352;2022-08-07T07:56:13;94707.38;;;26.08;48.25
56831;BME280;42713;42.676;23.352;2022-08-07T07:58:40;94710.78;;;26.05;47.46
56831;BME280;42713;42.676;23.352;2022-08-07T08:01:11;94714.03;;;26.10;47.69
56831;BME280;42713;42.676;23.352;2022-08-07T08:03:40;94709.06;;;26.13;47.78
56831;BME280;42713;42.676;23.352;2022-08-07T08:06:07;94715.06;;;26.22;48.01
56831;BME280;42713;42.676;23.352;2022-08-07T08:08:35;94718.38;;;26.31;47.48
56831;BME280;42713;42.676;23.352;2022-08-07T08:11:04;94718.59;;;26.38;47.44
56831;BME280;42713;42.676;23.352;2022-08-07T08:13:35;94722.13;;;26.42;47.17
56831;BME280;42713;42.676;23.352;2022-08-07T08:16:03;94717.56;;;26.43;46.91
56831;BME280;42713;42.676;23.352;2022-08-07T08:18:30;94716.97;;;26.50;46.46
56831;BME280;42713;42.676;23.352;2022-08-07T08:21:00;94718.50;;;26.51;46.77
56831;BME280;42713;42.676;23.352;2022-08-07T08:23:30;94718.63;;;26.54;47.19
56831;BME280;42713;42.676;23.352;2022-08-07T08:26:17;94718.34;;;26.60;47.48
56831;BME280;42713;42.676;23.352;2022-08-07T08:29:02;94720.53;;;26.70;46.97
56831;BME280;42713;42.676;23.352;2022-08-07T08:31:32;94711.88;;;26.77;46.82
56831;BME280;42713;42.676;23.352;2022-08-07T08:34:01;94718.22;;;26.84;46.03
56831;BME280;42713;42.676;23.352;2022-08-07T08:36:29;94703.66;;;26.85;45.89
56831;BME280;42713;42.676;23.352;2022-08-07T08:38:58;94704.44;;;26.86;46.34
56831;BME280;42713;42.676;23.352;2022-08-07T08:41:46;94712.84;;;26.84;46.69
56831;BME280;42713;42.676;23.352;2022-08-07T08:44:32;94717.19;;;26.89;46.10
56831;BME280;42713;42.676;23.352;2022-08-07T08:47:25;94723.50;;;26.97;46.16
56831;BME280;42713;42.676;23.352;2022-08-07T08:53:14;94716.13;;;27.10;46.15
56831;BME280;42713;42.676;23.352;2022-08-07T08:56:01;94707.13;;;27.18;45.74
56831;BME280;42713;42.676;23.352;2022-08-07T08:58:47;94721.41;;;27.22;45.39
56831;BME280;42713;42.676;23.352;2022-08-07T09:01:21;94711.97;;;27.28;45.52
56831;BME280;42713;42.676;23.352;2022-08-07T09:06:36;94716.53;;;27.44;45.05
56831;BME280;42713;42.676;23.352;2022-08-07T09:12:27;94694.56;;;27.58;44.17
56831;BME280;42713;42.676;23.352;2022-08-07T09:24:19;94695.00;;;27.79;43.93
56831;BME280;42713;42.676;23.352;2022-08-07T09:26:57;94693.06;;;27.80;42.54
56831;BME280;42713;42.676;23.352;2022-08-07T09:29:52;94692.66;;;27.78;43.18
56831;BME280;42713;42.676;23.352;2022-08-07T09:53:51;94675.38;;;27.99;42.15
56831;BME280;42713;42.676;23.352;2022-08-07T09:57:04;94676.78;;;27.92;42.01
56831;BME280;42713;42.676;23.352;2022-08-07T09:59:52;94681.03;;;27.93;42.48
56831;BME280;42713;42.676;23.352;2022-08-07T10:02:41;94667.22;;;27.95;41.73
56831;BME280;42713;42.676;23.352;2022-08-07T10:19:33;94644.63;;;28.42;40.90
56831;BME280;42713;42.676;23.352;2022-08-07T10:24:48;94638.88;;;28.67;40.46
56831;BME280;42713;42.676;23.352;2022-08-07T10:35:29;94650.94;;;28.73;40.16
56831;BME280;42713;42.676;23.352;2022-08-07T10:41:30;94653.44;;;28.63;39.54
56831;BME280;42713;42.676;23.352;2022-08-07T10:44:18;94655.47;;;28.69;40.45
56831;BME280;42713;42.676;23.352;2022-08-07T10:49:49;94658.06;;;28.85;40.02
56831;BME280;42713;42.676;23.352;2022-08-07T10:52:29;94658.59;;;28.95;39.55
56831;BME280;42713;42.676;23.352;2022-08-07T10:55:17;94659.41;;;28.99;39.80
56831;BME280;42713;42.676;23.352;2022-08-07T11:00:42;94660.59;;;29.01;39.70
56831;BME280;42713;42.676;23.352;2022-08-07T11:03:18;94656.34;;;29.00;38.97
56831;BME280;42713;42.676;23.352;2022-08-07T11:05:54;94643.56;;;28.94;39.35
56831;BME280;42713;42.676;23.352;2022-08-07T11:11:07;94650.69;;;28.82;40.20
56831;BME280;42713;42.676;23.352;2022-08-07T11:16:15;94649.09;;;28.78;41.41
56831;BME280;42713;42.676;23.352;2022-08-07T11:18:55;94664.72;;;28.92;41.46
56831;BME280;42713;42.676;23.352;2022-08-07T11:21:38;94655.91;;;28.95;40.67
56831;BME280;42713;42.676;23.352;2022-08-07T11:24:32;94650.09;;;28.93;40.79
56831;BME280;42713;42.676;23.352;2022-08-07T11:27:11;94653.81;;;29.11;40.73
56831;BME280;42713;42.676;23.352;2022-08-07T11:29:40;94661.75;;;29.27;39.39
56831;BME280;42713;42.676;23.352;2022-08-07T11:32:16;94646.63;;;29.19;39.08
56831;BME280;42713;42.676;23.352;2022-08-07T11:46:31;94659.69;;;29.17;40.66
56831;BME280;42713;42.676;23.352;2022-08-07T11:54:40;94666.41;;;29.03;41.21
56831;BME280;42713;42.676;23.352;2022-08-07T12:02:45;94663.56;;;29.19;40.63
56831;BME280;42713;42.676;23.352;2022-08-07T12:05:20;94660.63;;;29.28;41.11
56831;BME280;42713;42.676;23.352;2022-08-07T12:08:02;94658.97;;;29.47;41.06
56831;BME280;42713;42.676;23.352;2022-08-07T12:10:35;94656.22;;;29.74;40.75
56831;BME280;42713;42.676;23.352;2022-08-07T12:13:06;94670.09;;;30.06;39.42
56831;BME280;42713;42.676;23.352;2022-08-07T12:15:43;94684.84;;;30.12;39.13
56831;BME280;42713;42.676;23.352;2022-08-07T12:24:55;94646.00;;;30.28;39.42
56831;BME280;42713;42.676;23.352;2022-08-07T12:27:47;94661.13;;;30.33;39.30
56831;BME280;42713;42.676;23.352;2022-08-07T12:30:15;94655.00;;;30.39;39.11
56831;BME280;42713;42.676;23.352;2022-08-07T12:35:21;94639.03;;;30.65;39.26
56831;BME280;42713;42.676;23.352;2022-08-07T12:37:49;94630.25;;;30.75;36.78
56831;BME280;42713;42.676;23.352;2022-08-07T12:40:20;94632.59;;;30.84;37.17
56831;BME280;42713;42.676;23.352;2022-08-07T12:42:50;94634.69;;;31.05;36.94
56831;BME280;42713;42.676;23.352;2022-08-07T12:45:19;94622.78;;;31.13;36.04
56831;BME280;42713;42.676;23.352;2022-08-07T12:47:52;94624.00;;;31.23;34.87
56831;BME280;42713;42.676;23.352;2022-08-07T12:50:35;94640.72;;;31.40;34.76
56831;BME280;42713;42.676;23.352;2022-08-07T12:53:14;94627.94;;;31.40;34.81
56831;BME280;42713;42.676;23.352;2022-08-07T12:58:13;94626.94;;;31.70;35.32
56831;BME280;42713;42.676;23.352;2022-08-07T13:09:05;94607.00;;;32.33;34.68
56831;BME280;42713;42.676;23.352;2022-08-07T13:15:17;94607.38;;;32.42;34.05
56831;BME280;42713;42.676;23.352;2022-08-07T13:18:07;94605.44;;;32.60;34.29
56831;BME280;42713;42.676;23.352;2022-08-07T13:20:44;94602.34;;;32.77;32.53
56831;BME280;42713;42.676;23.352;2022-08-07T13:23:31;94596.56;;;32.93;32.43
56831;BME280;42713;42.676;23.352;2022-08-07T13:26:09;94598.44;;;33.10;32.30
56831;BME280;42713;42.676;23.352;2022-08-07T13:28:46;94592.19;;;33.39;32.84
56831;BME280;42713;42.676;23.352;2022-08-07T13:35:04;94587.00;;;33.77;30.51
56831;BME280;42713;42.676;23.352;2022-08-07T13:40:32;94589.03;;;34.29;30.42
56831;BME280;42713;42.676;23.352;2022-08-07T13:43:04;94588.91;;;34.51;30.50
56831;BME280;42713;42.676;23.352;2022-08-07T13:45:33;94591.44;;;34.69;30.06
56831;BME280;42713;42.676;23.352;2022-08-07T13:48:02;94601.44;;;34.83;29.66
56831;BME280;42713;42.676;23.352;2022-08-07T13:50:29;94590.66;;;34.72;29.26
56831;BME280;42713;42.676;23.352;2022-08-07T13:52:55;94595.09;;;34.51;29.83
56831;BME280;42713;42.676;23.352;2022-08-07T13:55:22;94598.38;;;34.24;30.13
56831;BME280;42713;42.676;23.352;2022-08-07T13:57:52;94584.63;;;33.86;29.98
56831;BME280;42713;42.676;23.352;2022-08-07T14:00:31;94579.59;;;33.85;30.63
56831;BME280;42713;42.676;23.352;2022-08-07T14:02:59;94590.75;;;34.01;30.37
56831;BME280;42713;42.676;23.352;2022-08-07T14:05:30;94585.69;;;34.07;29.72
56831;BME280;42713;42.676;23.352;2022-08-07T14:07:56;94580.78;;;33.76;29.58
56831;BME280;42713;42.676;23.352;2022-08-07T14:10:23;94594.81;;;33.57;29.92
56831;BME280;42713;42.676;23.352;2022-08-07T14:12:53;94605.41;;;33.33;30.53
56831;BME280;42713;42.676;23.352;2022-08-07T14:15:49;94607.00;;;33.05;30.89
56831;BME280;42713;42.676;23.352;2022-08-07T14:18:25;94607.03;;;32.87;31.70
56831;BME280;42713;42.676;23.352;2022-08-07T14:20:58;94615.53;;;32.67;32.24
56831;BME280;42713;42.676;23.352;2022-08-07T14:23:28;94613.59;;;32.57;32.75
56831;BME280;42713;42.676;23.352;2022-08-07T14:25:58;94620.19;;;32.52;32.95
56831;BME280;42713;42.676;23.352;2022-08-07T14:28:27;94609.72;;;32.40;32.98
56831;BME280;42713;42.676;23.352;2022-08-07T14:30:55;94602.72;;;32.28;32.42
56831;BME280;42713;42.676;23.352;2022-08-07T14:33:22;94617.41;;;32.12;33.00
56831;BME280;42713;42.676;23.352;2022-08-07T14:35:54;94607.69;;;31.93;32.92
56831;BME280;42713;42.676;23.352;2022-08-07T14:38:26;94615.78;;;31.90;33.22
56831;BME280;42713;42.676;23.352;2022-08-07T14:40:58;94613.81;;;31.76;34.05
56831;BME280;42713;42.676;23.352;2022-08-07T14:43:27;94605.63;;;31.65;34.87
56831;BME280;42713;42.676;23.352;2022-08-07T14:45:57;94604.06;;;31.60;34.73
56831;BME280;42713;42.676;23.352;2022-08-07T14:48:30;94604.03;;;31.57;35.27
56831;BME280;42713;42.676;23.352;2022-08-07T14:51:10;94599.78;;;31.56;35.59
56831;BME280;42713;42.676;23.352;2022-08-07T14:53:40;94602.91;;;31.61;35.50
56831;BME280;42713;42.676;23.352;2022-08-07T14:56:08;94605.69;;;31.72;35.58
56831;BME280;42713;42.676;23.352;2022-08-07T14:58:39;94607.25;;;31.84;35.69
56831;BME280;42713;42.676;23.352;2022-08-07T15:01:06;94596.84;;;31.97;35.69
56831;BME280;42713;42.676;23.352;2022-08-07T15:03:34;94601.09;;;31.98;35.42
56831;BME280;42713;42.676;23.352;2022-08-07T15:06:01;94599.56;;;31.93;35.97
56831;BME280;42713;42.676;23.352;2022-08-07T15:08:45;94600.69;;;31.89;35.57
56831;BME280;42713;42.676;23.352;2022-08-07T15:11:19;94598.41;;;31.91;35.34
56831;BME280;42713;42.676;23.352;2022-08-07T15:13:55;94598.00;;;31.92;35.45
56831;BME280;42713;42.676;23.352;2022-08-07T15:16:32;94596.47;;;31.98;35.56
56831;BME280;42713;42.676;23.352;2022-08-07T15:19:00;94595.78;;;32.38;34.91
56831;BME280;42713;42.676;23.352;2022-08-07T15:21:33;94595.78;;;32.99;34.30